sensor_id;sensor_type;location;lat;lon;timestamp;P1;durP1;ratioP1;P2;durP2;ratioP2
17361;SDS011;8798;51.938;4.348;2024-01-15T00:00:58;10.13;;;1.17;;
17361;SDS011;8798;51.938;4.348;2024-01-15T00:03:26;7.53;;;1.13;;
17361;SDS011;8798;51.938;4.348;2024-01-15T00:05:54;5.03;;;0.73;;
17361;SDS011;8798;51.938;4.348;2024-01-15T00:08:24;3.87;;;0.73;;
17361;SDS011;8798;51.938;4.348;2024-01-15T00:10:51;3.10;;;0.70;;
17361;SDS011;8798;51.938;4.348;2024-01-15T00:13:19;7.57;;;1.30;;
17361;SDS011;8798;51.938;4.348;2024-01-15T00:15:47;8.40;;;1.07;;
17361;SDS011;8798;51.938;4.348;2024-01-15T00:18:15;6.80;;;1.03;;
17361;SDS011;8798;51.938;4.348;2024-01-15T00:20:44;8.47;;;1.00;;
17361;SDS011;8798;51.938;4.348;2024-01-15T00:23:11;9.90;;;1.10;;
17361;SDS011;8798;51.938;4.348;2024-01-15T00:25:41;9.60;;;0.97;;
17361;SDS011;8798;51.938;4.348;2024-01-15T00:28:09;8.13;;;1.20;;
17361;SDS011;8798;51.938;4.348;2024-01-15T00:30:37;6.10;;;1.00;;
17361;SDS011;8798;51.938;4.348;2024-01-15T00:33:05;7.60;;;0.77;;
17361;SDS011;8798;51.938;4.348;2024-01-15T00:35:34;5.70;;;0.87;;
17361;SDS011;8798;51.938;4.348;2024-01-15T00:38:02;12.50;;;1.00;;
17361;SDS011;8798;51.938;4.348;2024-01-15T00:40:30;6.07;;;1.37;;
17361;SDS011;8798;51.938;4.348;2024-01-15T00:43:00;10.77;;;1.43;;
17361;SDS011;8798;51.938;4.348;2024-01-15T00:45:28;5.13;;;0.93;;
17361;SDS011;8798;51.938;4.348;2024-01-15T00:47:56;8.57;;;1.03;;
17361;SDS011;8798;51.938;4.348;2024-01-15T00:50:26;9.40;;;1.10;;
17361;SDS011;8798;51.938;4.348;2024-01-15T00:52:54;5.80;;;0.70;;
17361;SDS011;8798;51.938;4.348;2024-01-15T00:55:21;13.07;;;1.47;;
17361;SDS011;8798;51.938;4.348;2024-01-15T00:57:49;10.60;;;1.80;;
17361;SDS011;8798;51.938;4.348;2024-01-15T01:00:19;3.20;;;0.97;;
17361;SDS011;8798;51.938;4.348;2024-01-15T01:02:47;5.03;;;0.80;;
17361;SDS011;8798;51.938;4.348;2024-01-15T01:05:15;5.57;;;0.93;;
17361;SDS011;8798;51.938;4.348;2024-01-15T01:07:43;5.13;;;1.00;;
17361;SDS011;8798;51.938;4.348;2024-01-15T01:10:11;4.00;;;0.53;;
17361;SDS011;8798;51.938;4.348;2024-01-15T01:12:39;2.27;;;0.83;;
17361;SDS011;8798;51.938;4.348;2024-01-15T01:15:07;6.97;;;0.90;;
17361;SDS011;8798;51.938;4.348;2024-01-15T01:17:37;8.57;;;0.83;;
17361;SDS011;8798;51.938;4.348;2024-01-15T01:20:05;5.20;;;0.83;;
17361;SDS011;8798;51.938;4.348;2024-01-15T01:22:36;6.53;;;1.00;;
17361;SDS011;8798;51.938;4.348;2024-01-15T01:25:04;5.60;;;0.87;;
17361;SDS011;8798;51.938;4.348;2024-01-15T01:27:33;8.63;;;1.30;;
17361;SDS011;8798;51.938;4.348;2024-01-15T01:30:01;6.03;;;1.30;;
17361;SDS011;8798;51.938;4.348;2024-01-15T01:32:30;9.07;;;1.50;;
17361;SDS011;8798;51.938;4.348;2024-01-15T01:35:00;4.97;;;0.80;;
17361;SDS011;8798;51.938;4.348;2024-01-15T01:37:28;5.13;;;0.77;;
17361;SDS011;8798;51.938;4.348;2024-01-15T01:39:56;7.00;;;1.00;;
17361;SDS011;8798;51.938;4.348;2024-01-15T01:42:24;3.33;;;0.80;;
17361;SDS011;8798;51.938;4.348;2024-01-15T01:44:52;5.27;;;1.10;;
17361;SDS011;8798;51.938;4.348;2024-01-15T01:47:20;4.80;;;0.80;;
17361;SDS011;8798;51.938;4.348;2024-01-15T01:49:48;3.00;;;0.70;;
17361;SDS011;8798;51.938;4.348;2024-01-15T01:52:17;3.97;;;0.90;;
17361;SDS011;8798;51.938;4.348;2024-01-15T01:54:45;10.40;;;1.07;;
17361;SDS011;8798;51.938;4.348;2024-01-15T01:57:13;4.90;;;0.80;;
17361;SDS011;8798;51.938;4.348;2024-01-15T01:59:43;2.70;;;0.80;;
17361;SDS011;8798;51.938;4.348;2024-01-15T02:02:11;5.70;;;0.83;;
17361;SDS011;8798;51.938;4.348;2024-01-15T02:04:39;5.70;;;1.23;;
17361;SDS011;8798;51.938;4.348;2024-01-15T02:07:07;6.07;;;0.80;;
17361;SDS011;8798;51.938;4.348;2024-01-15T02:09:37;6.23;;;0.80;;
17361;SDS011;8798;51.938;4.348;2024-01-15T02:12:06;6.33;;;0.73;;
17361;SDS011;8798;51.938;4.348;2024-01-15T02:14:34;4.53;;;0.70;;
17361;SDS011;8798;51.938;4.348;2024-01-15T02:17:02;2.77;;;0.70;;
17361;SDS011;8798;51.938;4.348;2024-01-15T02:19:30;3.10;;;0.80;;
17361;SDS011;8798;51.938;4.348;2024-01-15T02:21:58;2.13;;;0.57;;
17361;SDS011;8798;51.938;4.348;2024-01-15T02:24:28;1.00;;;0.40;;
17361;SDS011;8798;51.938;4.348;2024-01-15T02:26:56;1.03;;;0.57;;
17361;SDS011;8798;51.938;4.348;2024-01-15T02:29:24;2.27;;;0.50;;
17361;SDS011;8798;51.938;4.348;2024-01-15T02:31:52;1.67;;;0.30;;
17361;SDS011;8798;51.938;4.348;2024-01-15T02:34:20;2.83;;;0.40;;
17361;SDS011;8798;51.938;4.348;2024-01-15T02:36:48;1.57;;;0.40;;
17361;SDS011;8798;51.938;4.348;2024-01-15T02:39:16;0.77;;;0.30;;
17361;SDS011;8798;51.938;4.348;2024-01-15T02:41:45;1.53;;;0.40;;
17361;SDS011;8798;51.938;4.348;2024-01-15T02:44:13;1.03;;;0.40;;
17361;SDS011;8798;51.938;4.348;2024-01-15T02:46:41;2.00;;;0.40;;
17361;SDS011;8798;51.938;4.348;2024-01-15T02:49:09;0.80;;;0.30;;
17361;SDS011;8798;51.938;4.348;2024-01-15T02:51:37;3.00;;;0.57;;
17361;SDS011;8798;51.938;4.348;2024-01-15T02:54:05;0.87;;;0.50;;
17361;SDS011;8798;51.938;4.348;2024-01-15T02:56:33;5.40;;;0.57;;
17361;SDS011;8798;51.938;4.348;2024-01-15T02:59:02;2.07;;;0.40;;
17361;SDS011;8798;51.938;4.348;2024-01-15T03:01:30;7.87;;;0.80;;
17361;SDS011;8798;51.938;4.348;2024-01-15T03:03:58;1.70;;;0.70;;
17361;SDS011;8798;51.938;4.348;2024-01-15T03:06:26;2.90;;;0.53;;
17361;SDS011;8798;51.938;4.348;2024-01-15T03:08:55;2.53;;;0.37;;
17361;SDS011;8798;51.938;4.348;2024-01-15T03:11:23;1.40;;;0.40;;
17361;SDS011;8798;51.938;4.348;2024-01-15T03:13:51;1.83;;;0.37;;
17361;SDS011;8798;51.938;4.348;2024-01-15T03:16:20;2.07;;;0.40;;
17361;SDS011;8798;51.938;4.348;2024-01-15T03:18:48;2.63;;;0.53;;
17361;SDS011;8798;51.938;4.348;2024-01-15T03:21:16;1.97;;;0.40;;
17361;SDS011;8798;51.938;4.348;2024-01-15T03:23:44;3.00;;;0.60;;
17361;SDS011;8798;51.938;4.348;2024-01-15T03:26:12;2.60;;;0.40;;
17361;SDS011;8798;51.938;4.348;2024-01-15T03:28:40;1.03;;;0.30;;
17361;SDS011;8798;51.938;4.348;2024-01-15T03:31:08;7.97;;;0.90;;
17361;SDS011;8798;51.938;4.348;2024-01-15T03:33:38;3.83;;;0.70;;
17361;SDS011;8798;51.938;4.348;2024-01-15T03:36:06;4.43;;;0.63;;
17361;SDS011;8798;51.938;4.348;2024-01-15T03:38:35;5.53;;;0.83;;
17361;SDS011;8798;51.938;4.348;2024-01-15T03:41:07;4.47;;;0.80;;
17361;SDS011;8798;51.938;4.348;2024-01-15T03:43:35;0.90;;;0.40;;
17361;SDS011;8798;51.938;4.348;2024-01-15T03:46:03;4.77;;;0.53;;
17361;SDS011;8798;51.938;4.348;2024-01-15T03:48:31;1.23;;;0.30;;
17361;SDS011;8798;51.938;4.348;2024-01-15T03:51:01;3.67;;;0.13;;
17361;SDS011;8798;51.938;4.348;2024-01-15T03:53:29;0.30;;;0.20;;
17361;SDS011;8798;51.938;4.348;2024-01-15T03:55:57;0.37;;;0.20;;
17361;SDS011;8798;51.938;4.348;2024-01-15T03:58:25;4.43;;;0.40;;
17361;SDS011;8798;51.938;4.348;2024-01-15T04:00:53;2.33;;;0.40;;
17361;SDS011;8798;51.938;4.348;2024-01-15T04:03:22;3.10;;;0.40;;
17361;SDS011;8798;51.938;4.348;2024-01-15T04:05:50;1.73;;;0.30;;
17361;SDS011;8798;51.938;4.348;2024-01-15T04:08:19;3.47;;;0.50;;
17361;SDS011;8798;51.938;4.348;2024-01-15T04:10:47;1.50;;;0.33;;
17361;SDS011;8798;51.938;4.348;2024-01-15T04:13:15;3.63;;;0.50;;
17361;SDS011;8798;51.938;4.348;2024-01-15T04:15:43;1.77;;;0.43;;
17361;SDS011;8798;51.938;4.348;2024-01-15T04:18:11;1.33;;;0.30;;
17361;SDS011;8798;51.938;4.348;2024-01-15T04:20:39;2.73;;;0.50;;
17361;SDS011;8798;51.938;4.348;2024-01-15T04:23:07;2.63;;;0.50;;
17361;SDS011;8798;51.938;4.348;2024-01-15T04:25:37;3.67;;;0.60;;
17361;SDS011;8798;51.938;4.348;2024-01-15T04:28:07;3.57;;;0.50;;
17361;SDS011;8798;51.938;4.348;2024-01-15T04:30:36;4.83;;;0.47;;
17361;SDS011;8798;51.938;4.348;2024-01-15T04:33:04;4.57;;;0.63;;
17361;SDS011;8798;51.938;4.348;2024-01-15T04:35:32;6.40;;;0.40;;
17361;SDS011;8798;51.938;4.348;2024-01-15T04:38:01;5.30;;;0.50;;
17361;SDS011;8798;51.938;4.348;2024-01-15T04:40:29;2.50;;;0.40;;
17361;SDS011;8798;51.938;4.348;2024-01-15T04:42:59;3.50;;;0.60;;
17361;SDS011;8798;51.938;4.348;2024-01-15T04:45:27;3.60;;;0.40;;
17361;SDS011;8798;51.938;4.348;2024-01-15T04:47:56;4.43;;;0.93;;
17361;SDS011;8798;51.938;4.348;2024-01-15T04:50:24;1.80;;;0.63;;
17361;SDS011;8798;51.938;4.348;2024-01-15T04:52:52;6.33;;;0.97;;
17361;SDS011;8798;51.938;4.348;2024-01-15T04:55:20;1.70;;;0.30;;
17361;SDS011;8798;51.938;4.348;2024-01-15T04:57:48;1.20;;;0.40;;
17361;SDS011;8798;51.938;4.348;2024-01-15T05:00:18;1.17;;;0.30;;
17361;SDS011;8798;51.938;4.348;2024-01-15T05:02:46;4.63;;;0.50;;
17361;SDS011;8798;51.938;4.348;2024-01-15T05:05:14;0.30;;;0.20;;
17361;SDS011;8798;51.938;4.348;2024-01-15T05:07:42;1.53;;;0.33;;
17361;SDS011;8798;51.938;4.348;2024-01-15T05:10:10;1.20;;;0.30;;
17361;SDS011;8798;51.938;4.348;2024-01-15T05:12:38;2.37;;;0.30;;
17361;SDS011;8798;51.938;4.348;2024-01-15T05:15:06;1.97;;;0.33;;
17361;SDS011;8798;51.938;4.348;2024-01-15T05:17:37;0.90;;;0.20;;
17361;SDS011;8798;51.938;4.348;2024-01-15T05:20:06;0.70;;;0.20;;
17361;SDS011;8798;51.938;4.348;2024-01-15T05:22:34;2.07;;;0.57;;
17361;SDS011;8798;51.938;4.348;2024-01-15T05:25:03;1.23;;;0.20;;
17361;SDS011;8798;51.938;4.348;2024-01-15T05:27:32;1.57;;;0.50;;
17361;SDS011;8798;51.938;4.348;2024-01-15T05:30:00;2.17;;;0.60;;
17361;SDS011;8798;51.938;4.348;2024-01-15T05:32:28;0.77;;;0.30;;
17361;SDS011;8798;51.938;4.348;2024-01-15T05:34:58;4.53;;;0.50;;
17361;SDS011;8798;51.938;4.348;2024-01-15T05:37:26;0.80;;;0.50;;
17361;SDS011;8798;51.938;4.348;2024-01-15T05:39:54;2.33;;;0.40;;
17361;SDS011;8798;51.938;4.348;2024-01-15T05:42:22;6.43;;;0.57;;
17361;SDS011;8798;51.938;4.348;2024-01-15T05:44:50;2.70;;;0.77;;
17361;SDS011;8798;51.938;4.348;2024-01-15T05:47:18;3.07;;;0.63;;
17361;SDS011;8798;51.938;4.348;2024-01-15T05:49:46;5.13;;;0.53;;
17361;SDS011;8798;51.938;4.348;2024-01-15T05:52:16;1.50;;;0.40;;
17361;SDS011;8798;51.938;4.348;2024-01-15T05:54:44;1.97;;;0.37;;
17361;SDS011;8798;51.938;4.348;2024-01-15T05:57:12;1.90;;;0.30;;
17361;SDS011;8798;51.938;4.348;2024-01-15T05:59:40;3.37;;;0.57;;
17361;SDS011;8798;51.938;4.348;2024-01-15T06:02:08;5.30;;;0.77;;
17361;SDS011;8798;51.938;4.348;2024-01-15T06:04:36;5.60;;;0.40;;
17361;SDS011;8798;51.938;4.348;2024-01-15T06:07:04;0.30;;;0.20;;
17361;SDS011;8798;51.938;4.348;2024-01-15T06:09:33;0.30;;;0.20;;
17361;SDS011;8798;51.938;4.348;2024-01-15T06:12:01;3.87;;;0.50;;
17361;SDS011;8798;51.938;4.348;2024-01-15T06:14:29;0.53;;;0.33;;
17361;SDS011;8798;51.938;4.348;2024-01-15T06:16:59;1.13;;;0.27;;
17361;SDS011;8798;51.938;4.348;2024-01-15T06:19:27;0.60;;;0.20;;
17361;SDS011;8798;51.938;4.348;2024-01-15T06:21:55;1.37;;;0.30;;
17361;SDS011;8798;51.938;4.348;2024-01-15T06:24:23;2.83;;;0.50;;
17361;SDS011;8798;51.938;4.348;2024-01-15T06:26:53;2.30;;;0.77;;
17361;SDS011;8798;51.938;4.348;2024-01-15T06:29:22;4.37;;;0.60;;
17361;SDS011;8798;51.938;4.348;2024-01-15T06:31:50;3.90;;;0.47;;
17361;SDS011;8798;51.938;4.348;2024-01-15T06:34:18;5.90;;;0.77;;
17361;SDS011;8798;51.938;4.348;2024-01-15T06:36:47;2.80;;;0.40;;
17361;SDS011;8798;51.938;4.348;2024-01-15T06:39:15;1.57;;;0.50;;
17361;SDS011;8798;51.938;4.348;2024-01-15T06:41:43;1.70;;;0.47;;
17361;SDS011;8798;51.938;4.348;2024-01-15T06:44:12;2.00;;;0.37;;
17361;SDS011;8798;51.938;4.348;2024-01-15T06:46:41;2.73;;;0.47;;
17361;SDS011;8798;51.938;4.348;2024-01-15T06:49:09;2.23;;;0.93;;
17361;SDS011;8798;51.938;4.348;2024-01-15T06:51:38;5.90;;;0.77;;
17361;SDS011;8798;51.938;4.348;2024-01-15T06:54:06;4.70;;;0.80;;
17361;SDS011;8798;51.938;4.348;2024-01-15T06:56:34;2.83;;;0.60;;
17361;SDS011;8798;51.938;4.348;2024-01-15T06:59:02;5.63;;;0.90;;
17361;SDS011;8798;51.938;4.348;2024-01-15T07:01:31;4.27;;;0.97;;
17361;SDS011;8798;51.938;4.348;2024-01-15T07:03:59;1.37;;;0.60;;
17361;SDS011;8798;51.938;4.348;2024-01-15T07:06:27;2.83;;;0.50;;
17361;SDS011;8798;51.938;4.348;2024-01-15T07:08:57;3.07;;;0.57;;
17361;SDS011;8798;51.938;4.348;2024-01-15T07:11:25;2.67;;;0.40;;
17361;SDS011;8798;51.938;4.348;2024-01-15T07:13:53;2.33;;;0.40;;
17361;SDS011;8798;51.938;4.348;2024-01-15T07:16:21;3.30;;;0.70;;
17361;SDS011;8798;51.938;4.348;2024-01-15T07:19:04;3.30;;;0.40;;
17361;SDS011;8798;51.938;4.348;2024-01-15T07:21:32;4.10;;;0.93;;
17361;SDS011;8798;51.938;4.348;2024-01-15T07:24:01;3.87;;;0.60;;
17361;SDS011;8798;51.938;4.348;2024-01-15T07:26:32;7.93;;;0.70;;
17361;SDS011;8798;51.938;4.348;2024-01-15T07:29:00;6.07;;;0.83;;
17361;SDS011;8798;51.938;4.348;2024-01-15T07:31:28;4.90;;;0.90;;
17361;SDS011;8798;51.938;4.348;2024-01-15T07:33:56;5.47;;;1.23;;
17361;SDS011;8798;51.938;4.348;2024-01-15T07:36:26;4.47;;;0.80;;
17361;SDS011;8798;51.938;4.348;2024-01-15T07:38:54;8.47;;;1.10;;
17361;SDS011;8798;51.938;4.348;2024-01-15T07:41:21;1.83;;;0.63;;
17361;SDS011;8798;51.938;4.348;2024-01-15T07:43:50;5.33;;;0.73;;
17361;SDS011;8798;51.938;4.348;2024-01-15T07:46:18;4.67;;;0.87;;
17361;SDS011;8798;51.938;4.348;2024-01-15T07:48:46;6.27;;;0.70;;
17361;SDS011;8798;51.938;4.348;2024-01-15T07:51:14;4.00;;;0.63;;
17361;SDS011;8798;51.938;4.348;2024-01-15T07:53:43;3.87;;;1.23;;
17361;SDS011;8798;51.938;4.348;2024-01-15T07:56:11;7.03;;;0.80;;
17361;SDS011;8798;51.938;4.348;2024-01-15T07:58:39;7.07;;;0.90;;
17361;SDS011;8798;51.938;4.348;2024-01-15T08:01:07;3.33;;;0.70;;
17361;SDS011;8798;51.938;4.348;2024-01-15T08:03:36;7.83;;;1.03;;
17361;SDS011;8798;51.938;4.348;2024-01-15T08:06:04;4.40;;;0.73;;
17361;SDS011;8798;51.938;4.348;2024-01-15T08:08:36;5.77;;;0.80;;
17361;SDS011;8798;51.938;4.348;2024-01-15T08:11:06;3.17;;;0.57;;
17361;SDS011;8798;51.938;4.348;2024-01-15T08:13:34;3.60;;;0.50;;
17361;SDS011;8798;51.938;4.348;2024-01-15T08:16:02;1.70;;;0.90;;
17361;SDS011;8798;51.938;4.348;2024-01-15T08:18:30;2.23;;;0.50;;
17361;SDS011;8798;51.938;4.348;2024-01-15T08:20:58;0.50;;;0.33;;
17361;SDS011;8798;51.938;4.348;2024-01-15T08:23:26;1.30;;;0.40;;
17361;SDS011;8798;51.938;4.348;2024-01-15T08:25:57;1.23;;;0.20;;
17361;SDS011;8798;51.938;4.348;2024-01-15T08:28:27;4.00;;;0.30;;
17361;SDS011;8798;51.938;4.348;2024-01-15T08:30:55;0.67;;;0.30;;
17361;SDS011;8798;51.938;4.348;2024-01-15T08:33:23;2.97;;;0.57;;
17361;SDS011;8798;51.938;4.348;2024-01-15T08:35:52;4.57;;;0.70;;
17361;SDS011;8798;51.938;4.348;2024-01-15T08:38:19;2.77;;;0.60;;
17361;SDS011;8798;51.938;4.348;2024-01-15T08:40:49;4.00;;;0.77;;
17361;SDS011;8798;51.938;4.348;2024-01-15T08:43:17;3.90;;;0.67;;
17361;SDS011;8798;51.938;4.348;2024-01-15T08:45:46;6.83;;;0.87;;
17361;SDS011;8798;51.938;4.348;2024-01-15T08:48:15;3.33;;;0.70;;
17361;SDS011;8798;51.938;4.348;2024-01-15T08:50:43;0.70;;;0.40;;
17361;SDS011;8798;51.938;4.348;2024-01-15T08:53:12;4.07;;;0.63;;
17361;SDS011;8798;51.938;4.348;2024-01-15T08:55:40;3.03;;;0.57;;
17361;SDS011;8798;51.938;4.348;2024-01-15T08:58:10;3.70;;;0.50;;
17361;SDS011;8798;51.938;4.348;2024-01-15T09:00:38;3.90;;;0.50;;
17361;SDS011;8798;51.938;4.348;2024-01-15T09:03:07;2.83;;;0.50;;
17361;SDS011;8798;51.938;4.348;2024-01-15T09:05:36;2.83;;;0.63;;
17361;SDS011;8798;51.938;4.348;2024-01-15T09:08:04;2.97;;;0.70;;
17361;SDS011;8798;51.938;4.348;2024-01-15T09:10:32;4.10;;;0.83;;
17361;SDS011;8798;51.938;4.348;2024-01-15T09:13:00;7.67;;;1.27;;
17361;SDS011;8798;51.938;4.348;2024-01-15T09:15:30;1.73;;;0.47;;
17361;SDS011;8798;51.938;4.348;2024-01-15T09:17:58;6.47;;;0.70;;
17361;SDS011;8798;51.938;4.348;2024-01-15T09:20:34;2.97;;;0.40;;
17361;SDS011;8798;51.938;4.348;2024-01-15T09:23:02;4.13;;;0.50;;
17361;SDS011;8798;51.938;4.348;2024-01-15T09:25:31;6.37;;;0.90;;
17361;SDS011;8798;51.938;4.348;2024-01-15T09:27:59;7.23;;;0.87;;
17361;SDS011;8798;51.938;4.348;2024-01-15T09:30:27;2.60;;;0.47;;
17361;SDS011;8798;51.938;4.348;2024-01-15T09:32:58;3.53;;;0.77;;
17361;SDS011;8798;51.938;4.348;2024-01-15T09:35:26;5.60;;;1.00;;
17361;SDS011;8798;51.938;4.348;2024-01-15T09:37:55;4.33;;;1.00;;
17361;SDS011;8798;51.938;4.348;2024-01-15T09:40:23;7.07;;;1.03;;
17361;SDS011;8798;51.938;4.348;2024-01-15T09:42:52;4.50;;;0.80;;
17361;SDS011;8798;51.938;4.348;2024-01-15T09:45:21;5.83;;;0.90;;
17361;SDS011;8798;51.938;4.348;2024-01-15T09:47:49;5.60;;;1.30;;
17361;SDS011;8798;51.938;4.348;2024-01-15T09:50:17;9.07;;;1.17;;
17361;SDS011;8798;51.938;4.348;2024-01-15T09:52:46;5.97;;;1.13;;
17361;SDS011;8798;51.938;4.348;2024-01-15T09:55:18;2.60;;;0.67;;
17361;SDS011;8798;51.938;4.348;2024-01-15T09:57:46;3.03;;;0.60;;
17361;SDS011;8798;51.938;4.348;2024-01-15T10:00:15;5.17;;;0.60;;
17361;SDS011;8798;51.938;4.348;2024-01-15T10:02:46;6.83;;;1.03;;
17361;SDS011;8798;51.938;4.348;2024-01-15T10:05:14;1.50;;;0.60;;
17361;SDS011;8798;51.938;4.348;2024-01-15T10:07:42;1.70;;;0.43;;
17361;SDS011;8798;51.938;4.348;2024-01-15T10:10:11;2.10;;;0.67;;
17361;SDS011;8798;51.938;4.348;2024-01-15T10:12:40;5.70;;;0.70;;
17361;SDS011;8798;51.938;4.348;2024-01-15T10:15:10;2.30;;;0.60;;
17361;SDS011;8798;51.938;4.348;2024-01-15T10:17:39;3.43;;;0.67;;
17361;SDS011;8798;51.938;4.348;2024-01-15T10:20:09;6.73;;;1.20;;
17361;SDS011;8798;51.938;4.348;2024-01-15T10:22:39;2.87;;;0.70;;
17361;SDS011;8798;51.938;4.348;2024-01-15T10:25:10;5.67;;;0.40;;
17361;SDS011;8798;51.938;4.348;2024-01-15T10:27:38;4.17;;;0.53;;
17361;SDS011;8798;51.938;4.348;2024-01-15T10:30:08;1.70;;;0.57;;
17361;SDS011;8798;51.938;4.348;2024-01-15T10:32:37;1.07;;;0.20;;
17361;SDS011;8798;51.938;4.348;2024-01-15T10:35:06;1.30;;;0.40;;
17361;SDS011;8798;51.938;4.348;2024-01-15T10:37:35;2.97;;;0.50;;
17361;SDS011;8798;51.938;4.348;2024-01-15T10:40:03;2.90;;;0.57;;
17361;SDS011;8798;51.938;4.348;2024-01-15T10:42:32;2.27;;;0.47;;
17361;SDS011;8798;51.938;4.348;2024-01-15T10:45:00;3.23;;;0.63;;
17361;SDS011;8798;51.938;4.348;2024-01-15T10:47:30;0.40;;;0.30;;
17361;SDS011;8798;51.938;4.348;2024-01-15T10:49:58;2.60;;;0.40;;
17361;SDS011;8798;51.938;4.348;2024-01-15T10:52:27;2.67;;;0.50;;
17361;SDS011;8798;51.938;4.348;2024-01-15T10:54:56;2.40;;;0.73;;
17361;SDS011;8798;51.938;4.348;2024-01-15T10:57:25;1.77;;;0.40;;
17361;SDS011;8798;51.938;4.348;2024-01-15T10:59:54;1.43;;;0.30;;
17361;SDS011;8798;51.938;4.348;2024-01-15T11:02:22;2.00;;;0.60;;
17361;SDS011;8798;51.938;4.348;2024-01-15T11:04:53;0.80;;;0.30;;
17361;SDS011;8798;51.938;4.348;2024-01-15T11:07:21;1.83;;;0.47;;
17361;SDS011;8798;51.938;4.348;2024-01-15T11:09:54;4.10;;;0.70;;
17361;SDS011;8798;51.938;4.348;2024-01-15T11:12:25;0.60;;;0.30;;
17361;SDS011;8798;51.938;4.348;2024-01-15T11:15:00;1.23;;;0.60;;
17361;SDS011;8798;51.938;4.348;2024-01-15T11:20:27;4.50;;;0.70;;
17361;SDS011;8798;51.938;4.348;2024-01-15T11:22:57;6.13;;;0.63;;
17361;SDS011;8798;51.938;4.348;2024-01-15T11:25:33;4.23;;;0.90;;
17361;SDS011;8798;51.938;4.348;2024-01-15T11:28:04;3.20;;;0.57;;
17361;SDS011;8798;51.938;4.348;2024-01-15T11:30:33;4.43;;;0.60;;
17361;SDS011;8798;51.938;4.348;2024-01-15T11:33:03;7.63;;;0.50;;
17361;SDS011;8798;51.938;4.348;2024-01-15T11:35:49;1.97;;;0.67;;
17361;SDS011;8798;51.938;4.348;2024-01-15T11:38:26;3.13;;;0.70;;
17361;SDS011;8798;51.938;4.348;2024-01-15T11:40:56;1.90;;;0.50;;
17361;SDS011;8798;51.938;4.348;2024-01-15T11:43:26;1.90;;;0.50;;
17361;SDS011;8798;51.938;4.348;2024-01-15T11:45:58;1.80;;;0.40;;
17361;SDS011;8798;51.938;4.348;2024-01-15T11:48:31;1.63;;;0.30;;
17361;SDS011;8798;51.938;4.348;2024-01-15T11:51:13;1.90;;;0.37;;
17361;SDS011;8798;51.938;4.348;2024-01-15T11:53:44;1.83;;;0.50;;
17361;SDS011;8798;51.938;4.348;2024-01-15T11:56:15;3.67;;;1.17;;
17361;SDS011;8798;51.938;4.348;2024-01-15T11:58:44;8.23;;;0.93;;
17361;SDS011;8798;51.938;4.348;2024-01-15T12:01:12;6.43;;;0.83;;
17361;SDS011;8798;51.938;4.348;2024-01-15T12:03:40;1.53;;;0.80;;
17361;SDS011;8798;51.938;4.348;2024-01-15T12:06:08;3.43;;;0.57;;
17361;SDS011;8798;51.938;4.348;2024-01-15T12:08:39;4.03;;;0.80;;
17361;SDS011;8798;51.938;4.348;2024-01-15T12:11:07;2.27;;;0.87;;
17361;SDS011;8798;51.938;4.348;2024-01-15T12:13:41;1.60;;;0.53;;
17361;SDS011;8798;51.938;4.348;2024-01-15T12:16:09;0.93;;;0.50;;
17361;SDS011;8798;51.938;4.348;2024-01-15T12:18:38;5.07;;;0.80;;
17361;SDS011;8798;51.938;4.348;2024-01-15T12:21:06;1.17;;;0.73;;
17361;SDS011;8798;51.938;4.348;2024-01-15T12:23:34;3.03;;;0.87;;
17361;SDS011;8798;51.938;4.348;2024-01-15T12:26:03;3.60;;;0.60;;
17361;SDS011;8798;51.938;4.348;2024-01-15T12:28:31;7.43;;;1.27;;
17361;SDS011;8798;51.938;4.348;2024-01-15T12:31:00;5.20;;;0.70;;
17361;SDS011;8798;51.938;4.348;2024-01-15T12:33:32;9.83;;;0.90;;
17361;SDS011;8798;51.938;4.348;2024-01-15T12:36:01;5.53;;;1.10;;
17361;SDS011;8798;51.938;4.348;2024-01-15T12:38:29;4.80;;;1.23;;
17361;SDS011;8798;51.938;4.348;2024-01-15T12:40:57;8.57;;;0.97;;
17361;SDS011;8798;51.938;4.348;2024-01-15T12:43:26;4.63;;;1.00;;
17361;SDS011;8798;51.938;4.348;2024-01-15T12:45:55;9.27;;;1.30;;
17361;SDS011;8798;51.938;4.348;2024-01-15T12:48:24;9.33;;;1.33;;
17361;SDS011;8798;51.938;4.348;2024-01-15T12:50:52;6.23;;;1.33;;
17361;SDS011;8798;51.938;4.348;2024-01-15T12:53:20;8.90;;;1.23;;
17361;SDS011;8798;51.938;4.348;2024-01-15T12:55:48;4.53;;;0.83;;
17361;SDS011;8798;51.938;4.348;2024-01-15T12:58:16;5.50;;;0.70;;
17361;SDS011;8798;51.938;4.348;2024-01-15T13:00:48;4.90;;;1.03;;
17361;SDS011;8798;51.938;4.348;2024-01-15T13:03:16;1.70;;;0.70;;
17361;SDS011;8798;51.938;4.348;2024-01-15T13:05:44;2.70;;;1.00;;
17361;SDS011;8798;51.938;4.348;2024-01-15T13:08:13;6.23;;;1.03;;
17361;SDS011;8798;51.938;4.348;2024-01-15T13:10:41;4.37;;;0.80;;
17361;SDS011;8798;51.938;4.348;2024-01-15T13:13:09;3.20;;;0.70;;
17361;SDS011;8798;51.938;4.348;2024-01-15T13:15:37;1.50;;;0.50;;
17361;SDS011;8798;51.938;4.348;2024-01-15T13:18:07;6.77;;;0.90;;
17361;SDS011;8798;51.938;4.348;2024-01-15T13:20:36;3.47;;;1.00;;
17361;SDS011;8798;51.938;4.348;2024-01-15T13:23:04;2.10;;;0.70;;
17361;SDS011;8798;51.938;4.348;2024-01-15T13:25:32;4.90;;;1.17;;
17361;SDS011;8798;51.938;4.348;2024-01-15T13:28:02;3.83;;;0.73;;
17361;SDS011;8798;51.938;4.348;2024-01-15T13:30:31;1.90;;;0.40;;
17361;SDS011;8798;51.938;4.348;2024-01-15T13:32:59;3.40;;;0.57;;
17361;SDS011;8798;51.938;4.348;2024-01-15T13:35:33;2.03;;;0.53;;
17361;SDS011;8798;51.938;4.348;2024-01-15T13:38:02;4.27;;;0.70;;
17361;SDS011;8798;51.938;4.348;2024-01-15T13:40:30;3.67;;;0.60;;
17361;SDS011;8798;51.938;4.348;2024-01-15T13:42:58;1.10;;;0.63;;
17361;SDS011;8798;51.938;4.348;2024-01-15T13:45:26;3.77;;;0.80;;
17361;SDS011;8798;51.938;4.348;2024-01-15T13:47:54;4.67;;;0.80;;
17361;SDS011;8798;51.938;4.348;2024-01-15T13:50:22;8.13;;;1.07;;
17361;SDS011;8798;51.938;4.348;2024-01-15T13:52:52;5.27;;;1.00;;
17361;SDS011;8798;51.938;4.348;2024-01-15T13:55:20;4.00;;;0.93;;
17361;SDS011;8798;51.938;4.348;2024-01-15T13:57:48;6.33;;;1.70;;
17361;SDS011;8798;51.938;4.348;2024-01-15T14:00:16;8.00;;;1.50;;
17361;SDS011;8798;51.938;4.348;2024-01-15T14:02:46;3.83;;;0.70;;
17361;SDS011;8798;51.938;4.348;2024-01-15T14:05:14;4.13;;;0.77;;
17361;SDS011;8798;51.938;4.348;2024-01-15T14:07:43;4.73;;;1.03;;
17361;SDS011;8798;51.938;4.348;2024-01-15T14:10:12;3.83;;;0.83;;
17361;SDS011;8798;51.938;4.348;2024-01-15T14:12:40;3.40;;;1.10;;
17361;SDS011;8798;51.938;4.348;2024-01-15T14:15:08;2.77;;;0.83;;
17361;SDS011;8798;51.938;4.348;2024-01-15T14:17:37;5.00;;;0.90;;
17361;SDS011;8798;51.938;4.348;2024-01-15T14:20:06;5.33;;;0.97;;
17361;SDS011;8798;51.938;4.348;2024-01-15T14:22:36;4.63;;;0.90;;
17361;SDS011;8798;51.938;4.348;2024-01-15T14:25:04;2.87;;;0.67;;
17361;SDS011;8798;51.938;4.348;2024-01-15T14:27:33;1.53;;;0.60;;
17361;SDS011;8798;51.938;4.348;2024-01-15T14:30:03;2.17;;;0.63;;
17361;SDS011;8798;51.938;4.348;2024-01-15T14:32:32;1.53;;;0.40;;
17361;SDS011;8798;51.938;4.348;2024-01-15T14:35:00;2.93;;;0.60;;
17361;SDS011;8798;51.938;4.348;2024-01-15T14:37:30;1.60;;;0.30;;
17361;SDS011;8798;51.938;4.348;2024-01-15T14:39:58;0.70;;;0.30;;
17361;SDS011;8798;51.938;4.348;2024-01-15T14:42:26;3.30;;;0.40;;
17361;SDS011;8798;51.938;4.348;2024-01-15T14:44:56;7.83;;;0.90;;
17361;SDS011;8798;51.938;4.348;2024-01-15T14:47:24;3.23;;;0.53;;
17361;SDS011;8798;51.938;4.348;2024-01-15T14:49:53;1.30;;;0.47;;
17361;SDS011;8798;51.938;4.348;2024-01-15T14:52:23;2.37;;;0.57;;
17361;SDS011;8798;51.938;4.348;2024-01-15T14:54:51;2.43;;;0.60;;
17361;SDS011;8798;51.938;4.348;2024-01-15T14:57:19;3.93;;;0.53;;
17361;SDS011;8798;51.938;4.348;2024-01-15T14:59:47;5.40;;;0.50;;
17361;SDS011;8798;51.938;4.348;2024-01-15T15:02:17;2.20;;;0.93;;
17361;SDS011;8798;51.938;4.348;2024-01-15T15:04:45;7.97;;;0.97;;
17361;SDS011;8798;51.938;4.348;2024-01-15T15:07:15;3.50;;;1.00;;
17361;SDS011;8798;51.938;4.348;2024-01-15T15:09:44;5.83;;;1.30;;
17361;SDS011;8798;51.938;4.348;2024-01-15T15:12:12;6.30;;;1.67;;